createdAt,value
2018-12-27T00:00:35.795Z,16.50
2018-12-27T00:03:04.367Z,16.37
2018-12-27T00:05:32.934Z,14.80
2018-12-27T00:08:01.165Z,15.00
2018-12-27T00:10:29.696Z,14.60
2018-12-27T00:12:58.270Z,14.40
2018-12-27T00:15:26.870Z,15.27
2018-12-27T00:17:55.111Z,14.90
2018-12-27T00:20:23.621Z,14.10
2018-12-27T00:22:52.196Z,14.57
2018-12-27T00:25:21.601Z,15.40
2018-12-27T00:27:50.184Z,15.03
2018-12-27T00:30:19.075Z,15.80
2018-12-27T00:32:47.967Z,14.90
2018-12-27T00:35:16.955Z,14.97
2018-12-27T00:37:45.838Z,14.57
2018-12-27T00:40:14.386Z,13.17
2018-12-27T00:42:43.212Z,14.43
2018-12-27T00:45:11.777Z,15.17
2018-12-27T00:47:42.933Z,15.30
2018-12-27T00:50:11.852Z,15.17
2018-12-27T00:52:40.721Z,14.60
2018-12-27T00:55:09.670Z,16.00
2018-12-27T00:57:38.506Z,15.17
2018-12-27T01:00:07.550Z,14.80
2018-12-27T01:02:36.875Z,15.57
2018-12-27T01:05:07.118Z,16.30
2018-12-27T01:07:36.419Z,13.80
2018-12-27T01:10:04.990Z,14.63
2018-12-27T01:12:33.890Z,13.70
2018-12-27T01:15:02.770Z,14.27
2018-12-27T01:17:31.657Z,15.50
2018-12-27T01:20:00.573Z,15.70
2018-12-27T01:22:29.441Z,15.37
2018-12-27T01:24:58.319Z,15.27
2018-12-27T01:27:27.230Z,15.27
2018-12-27T01:29:56.123Z,15.73
2018-12-27T01:32:25.019Z,14.23
2018-12-27T01:34:54.097Z,15.17
2018-12-27T01:37:22.997Z,15.17
2018-12-27T01:39:51.552Z,14.80
2018-12-27T01:42:20.088Z,15.10
2018-12-27T01:44:48.636Z,15.37
2018-12-27T01:47:17.183Z,15.93
2018-12-27T01:49:45.732Z,15.90
2018-12-27T01:52:14.582Z,14.60
2018-12-27T01:54:44.596Z,15.47
2018-12-27T01:57:13.502Z,14.27
2018-12-27T01:59:42.379Z,14.83
2018-12-27T02:02:11.075Z,14.33
2018-12-27T02:04:39.951Z,14.17
2018-12-27T02:07:08.943Z,14.43
2018-12-27T02:09:37.557Z,15.10
2018-12-27T02:12:06.421Z,14.23
2018-12-27T02:14:35.306Z,15.20
2018-12-27T02:17:04.197Z,14.33
2018-12-27T02:19:32.822Z,14.73
2018-12-27T02:22:01.769Z,14.43
2018-12-27T02:24:31.477Z,14.27
2018-12-27T02:27:02.612Z,14.13
2018-12-27T02:29:31.198Z,13.50
2018-12-27T02:32:00.101Z,13.20
2018-12-27T02:34:28.990Z,12.10
2018-12-27T02:36:57.540Z,13.30
2018-12-27T02:39:26.080Z,13.10
2018-12-27T02:41:54.956Z,13.57
2018-12-27T02:44:23.827Z,12.80
2018-12-27T02:46:52.728Z,13.10
2018-12-27T02:49:21.521Z,13.80
2018-12-27T02:51:50.408Z,14.37
2018-12-27T02:54:18.947Z,13.50
2018-12-27T02:56:47.889Z,14.60
2018-12-27T02:59:16.761Z,13.83
2018-12-27T03:01:45.287Z,13.27
2018-12-27T03:04:14.134Z,13.90
2018-12-27T03:06:43.018Z,13.50
2018-12-27T03:09:11.927Z,13.60
2018-12-27T03:11:40.801Z,12.50
2018-12-27T03:14:09.697Z,12.63
2018-12-27T03:16:38.600Z,12.03
2018-12-27T03:19:07.143Z,13.17
2018-12-27T03:21:36.055Z,13.13
2018-12-27T03:24:04.596Z,14.30
2018-12-27T03:26:33.518Z,12.60
2018-12-27T03:29:02.141Z,13.20
2018-12-27T03:31:31.269Z,13.00
2018-12-27T03:33:59.799Z,11.73
2018-12-27T03:36:28.354Z,13.67
2018-12-27T03:38:58.367Z,12.20
2018-12-27T03:41:27.276Z,12.50
2018-12-27T03:43:56.159Z,13.10
2018-12-27T03:46:25.053Z,12.53
2018-12-27T03:48:53.602Z,12.47
2018-12-27T03:51:22.534Z,13.13
2018-12-27T03:53:51.074Z,12.30
2018-12-27T03:56:19.990Z,11.67
2018-12-27T03:58:49.104Z,12.60
2018-12-27T04:01:17.995Z,11.60
2018-12-27T04:03:46.887Z,12.57
2018-12-27T04:06:15.758Z,12.53
2018-12-27T04:08:44.638Z,12.43
2018-12-27T04:11:13.209Z,12.70
2018-12-27T04:13:42.119Z,12.53
2018-12-27T04:16:10.702Z,13.00
2018-12-27T04:18:39.288Z,12.90
2018-12-27T04:21:07.518Z,12.73
2018-12-27T04:23:35.746Z,11.77
2018-12-27T04:26:04.306Z,13.07
2018-12-27T04:28:32.897Z,12.13
2018-12-27T04:31:01.480Z,10.60
2018-12-27T04:33:29.963Z,11.33
2018-12-27T04:35:58.196Z,11.23
2018-12-27T04:38:26.727Z,12.40
2018-12-27T04:40:55.327Z,11.67
2018-12-27T04:43:23.682Z,12.00
2018-12-27T04:45:52.250Z,11.20
2018-12-27T04:48:20.746Z,13.53
2018-12-27T04:50:49.322Z,11.37
2018-12-27T04:53:17.548Z,12.00
2018-12-27T04:55:46.076Z,11.97
2018-12-27T04:58:14.658Z,12.00
2018-12-27T05:00:42.908Z,12.37
2018-12-27T05:03:11.451Z,12.00
2018-12-27T05:05:40.020Z,11.37
2018-12-27T05:08:08.597Z,12.23
2018-12-27T05:10:37.082Z,12.33
2018-12-27T05:13:05.299Z,11.67
2018-12-27T05:15:33.819Z,12.13
2018-12-27T05:18:02.416Z,11.50
2018-12-27T05:20:31.186Z,12.13
2018-12-27T05:22:59.765Z,12.20
2018-12-27T05:25:28.347Z,12.57
2018-12-27T05:27:56.932Z,11.23
2018-12-27T05:30:25.415Z,12.13
2018-12-27T05:32:53.993Z,11.30
2018-12-27T05:35:22.576Z,10.63
2018-12-27T05:37:50.774Z,11.80
2018-12-27T05:40:18.984Z,11.50
2018-12-27T05:42:47.507Z,10.40
2018-12-27T05:45:15.803Z,11.60
2018-12-27T05:47:44.364Z,10.83
2018-12-27T05:50:12.746Z,11.30
2018-12-27T05:52:41.331Z,10.70
2018-12-27T05:55:11.031Z,11.23
2018-12-27T05:57:39.613Z,12.07
2018-12-27T06:00:07.832Z,11.03
2018-12-27T06:02:36.378Z,11.60
2018-12-27T06:05:04.980Z,11.77
2018-12-27T06:07:34.980Z,11.13
2018-12-27T06:10:03.183Z,10.70
2018-12-27T06:12:31.423Z,10.80
2018-12-27T06:14:59.995Z,10.80
2018-12-27T06:17:28.480Z,9.87
2018-12-27T06:19:57.060Z,10.47
2018-12-27T06:22:25.272Z,10.73
2018-12-27T06:24:56.181Z,11.27
2018-12-27T06:27:24.770Z,11.40
2018-12-27T06:29:53.338Z,10.60
2018-12-27T06:32:21.919Z,11.40
2018-12-27T06:34:50.531Z,11.30
2018-12-27T06:37:19.123Z,10.67
2018-12-27T06:39:49.581Z,11.87
2018-12-27T06:42:18.093Z,10.77
2018-12-27T06:44:46.692Z,11.80
2018-12-27T06:47:17.959Z,23.40
2018-12-27T06:49:46.199Z,11.20
2018-12-27T06:52:14.781Z,10.67
2018-12-27T06:54:43.285Z,9.83
2018-12-27T06:57:11.844Z,10.00
2018-12-27T06:59:40.435Z,9.63
2018-12-27T07:02:09.005Z,9.80
2018-12-27T07:04:37.205Z,9.60
2018-12-27T07:07:07.305Z,9.60
2018-12-27T07:09:35.522Z,16.27
2018-12-27T07:12:04.063Z,13.60
2018-12-27T07:14:32.249Z,10.27
2018-12-27T07:17:00.808Z,9.50
2018-12-27T07:19:29.431Z,10.67
2018-12-27T07:21:57.970Z,9.60
2018-12-27T07:24:26.560Z,9.60
2018-12-27T07:26:55.162Z,10.50
2018-12-27T07:29:23.727Z,12.27
2018-12-27T07:31:51.921Z,10.17
2018-12-27T07:34:20.157Z,10.40
2018-12-27T07:36:48.765Z,9.10
2018-12-27T07:39:17.341Z,9.90
2018-12-27T07:41:45.957Z,10.30
2018-12-27T07:44:14.520Z,9.43
2018-12-27T07:46:42.743Z,8.97
2018-12-27T07:49:11.256Z,9.33
2018-12-27T07:51:39.873Z,9.27
2018-12-27T07:54:08.433Z,9.03
2018-12-27T07:56:37.016Z,8.93
2018-12-27T07:59:05.588Z,9.87
2018-12-27T08:01:33.907Z,9.50
2018-12-27T08:04:02.460Z,9.23
2018-12-27T08:06:31.032Z,8.47
2018-12-27T08:08:59.643Z,9.00
2018-12-27T08:11:28.197Z,8.53
2018-12-27T08:13:56.778Z,8.10
2018-12-27T08:16:25.799Z,8.83
2018-12-27T08:18:53.987Z,8.63
2018-12-27T08:21:22.218Z,10.03
2018-12-27T08:23:53.979Z,9.30
2018-12-27T08:26:23.066Z,9.60
2018-12-27T08:28:52.561Z,10.03
2018-12-27T08:31:21.060Z,8.63
2018-12-27T08:33:49.643Z,8.60
2018-12-27T08:36:17.865Z,9.07
2018-12-27T08:38:46.407Z,11.20
2018-12-27T08:41:14.989Z,8.27
2018-12-27T08:43:43.562Z,8.27
2018-12-27T08:46:12.168Z,8.57
2018-12-27T08:48:40.835Z,8.77
2018-12-27T08:51:09.418Z,8.10
2018-12-27T08:53:37.997Z,7.90
2018-12-27T08:56:06.596Z,9.43
2018-12-27T08:58:35.161Z,7.80
2018-12-27T09:01:03.368Z,7.87
2018-12-27T09:03:31.571Z,8.60
2018-12-27T09:06:00.197Z,7.80
2018-12-27T09:08:28.811Z,7.97
2018-12-27T09:10:57.354Z,7.40
2018-12-27T09:13:25.942Z,7.53
2018-12-27T09:15:54.525Z,9.80
2018-12-27T09:18:23.018Z,9.50
2018-12-27T09:20:51.219Z,9.53
2018-12-27T09:23:19.753Z,8.73
2018-12-27T09:25:48.341Z,8.60
2018-12-27T09:28:16.535Z,8.40
2018-12-27T09:30:45.094Z,8.00
2018-12-27T09:33:13.714Z,7.50
2018-12-27T09:35:42.290Z,8.17
2018-12-27T09:38:10.859Z,62.97
2018-12-27T09:40:39.422Z,9.13
2018-12-27T09:43:07.618Z,8.03
2018-12-27T09:45:36.183Z,7.80
2018-12-27T09:48:04.760Z,9.37
2018-12-27T09:50:32.985Z,8.67
2018-12-27T09:53:01.548Z,8.10
2018-12-27T09:55:29.751Z,8.17
2018-12-27T09:57:59.507Z,8.07
2018-12-27T10:00:28.090Z,7.30
2018-12-27T10:02:56.319Z,8.30
2018-12-27T10:05:24.533Z,8.60
2018-12-27T10:07:57.568Z,7.80
2018-12-27T10:10:24.704Z,7.43
2018-12-27T10:12:52.901Z,8.20
2018-12-27T10:15:21.425Z,8.40
2018-12-27T10:17:49.620Z,7.47
2018-12-27T10:20:17.835Z,8.30
2018-12-27T10:22:46.410Z,8.10
2018-12-27T10:25:14.678Z,9.07
2018-12-27T10:27:43.120Z,8.40
2018-12-27T10:30:11.310Z,8.07
2018-12-27T10:32:39.525Z,8.30
2018-12-27T10:35:08.590Z,8.60
2018-12-27T10:37:37.134Z,8.77
2018-12-27T10:40:08.600Z,8.87
2018-12-27T10:42:37.167Z,8.47
2018-12-27T10:45:08.072Z,9.40
2018-12-27T10:47:36.698Z,9.57
2018-12-27T10:50:08.170Z,9.30
2018-12-27T10:52:36.683Z,9.20
2018-12-27T10:55:06.962Z,9.37
2018-12-27T10:57:35.539Z,9.07
2018-12-27T11:00:06.650Z,9.60
2018-12-27T11:02:35.160Z,7.97
2018-12-27T11:05:03.943Z,8.30
2018-12-27T11:07:32.152Z,8.57
2018-12-27T11:10:00.370Z,8.73
2018-12-27T11:12:29.088Z,7.13
2018-12-27T11:14:57.658Z,8.93
2018-12-27T11:17:25.922Z,8.80
2018-12-27T11:19:54.398Z,8.57
2018-12-27T11:22:22.997Z,8.10
2018-12-27T11:24:51.656Z,9.37
2018-12-27T11:27:20.256Z,9.50
2018-12-27T11:29:48.470Z,8.67
2018-12-27T11:32:17.023Z,7.80
2018-12-27T11:34:45.241Z,7.43
2018-12-27T11:37:13.767Z,8.20
2018-12-27T11:39:42.350Z,9.10
2018-12-27T11:42:10.577Z,8.43
2018-12-27T11:44:39.091Z,7.60
2018-12-27T11:47:07.301Z,8.10
2018-12-27T11:49:35.855Z,8.67
2018-12-27T11:52:04.367Z,8.23
2018-12-27T11:54:32.592Z,8.33
2018-12-27T11:57:00.776Z,8.17
2018-12-27T11:59:29.404Z,8.87
2018-12-27T12:01:58.051Z,8.00
2018-12-27T12:04:26.641Z,8.53
2018-12-27T12:06:55.120Z,7.93
2018-12-27T12:09:23.729Z,8.30
2018-12-27T12:11:52.281Z,8.80
2018-12-27T12:14:20.467Z,8.40
2018-12-27T12:16:49.145Z,8.33
2018-12-27T12:19:17.723Z,7.77
2018-12-27T12:21:46.405Z,7.83
2018-12-27T12:24:14.636Z,7.80
2018-12-27T12:26:42.869Z,7.60
2018-12-27T12:29:11.091Z,7.43
2018-12-27T12:31:39.616Z,7.67
2018-12-27T12:34:08.023Z,8.00
2018-12-27T12:36:36.291Z,7.23
2018-12-27T12:39:05.986Z,7.00
2018-12-27T12:41:34.546Z,7.03
2018-12-27T12:44:03.546Z,6.70
2018-12-27T12:46:32.148Z,7.67
2018-12-27T12:49:02.350Z,7.77
2018-12-27T12:51:32.989Z,6.93
2018-12-27T12:54:01.255Z,6.87
2018-12-27T12:56:29.999Z,7.67
2018-12-27T12:58:58.534Z,7.43
2018-12-27T13:01:28.255Z,7.77
2018-12-27T13:03:56.826Z,6.80
2018-12-27T13:06:25.022Z,6.50
2018-12-27T13:08:53.574Z,7.47
2018-12-27T13:11:22.142Z,6.20
2018-12-27T13:13:50.766Z,6.40
2018-12-27T13:16:18.972Z,7.03
2018-12-27T13:18:47.558Z,6.80
2018-12-27T13:21:15.790Z,6.60
2018-12-27T13:23:44.368Z,6.60
2018-12-27T13:26:13.847Z,6.73
2018-12-27T13:28:42.045Z,5.83
2018-12-27T13:31:10.605Z,6.83
2018-12-27T13:33:39.205Z,6.90
2018-12-27T13:36:07.773Z,6.10
2018-12-27T13:38:35.990Z,6.60
2018-12-27T13:41:04.177Z,6.73
2018-12-27T13:43:32.807Z,6.90
2018-12-27T13:46:01.387Z,6.13
2018-12-27T13:48:29.973Z,6.80
2018-12-27T13:50:58.176Z,6.70
2018-12-27T13:53:26.750Z,6.50
2018-12-27T13:55:54.976Z,6.40
2018-12-27T13:58:23.203Z,7.50
2018-12-27T14:00:51.754Z,6.30
2018-12-27T14:03:20.339Z,6.27
2018-12-27T14:18:35.232Z,6.20
2018-12-27T14:21:03.691Z,6.53
2018-12-27T14:23:32.292Z,6.97
2018-12-27T14:26:00.785Z,6.20
2018-12-27T14:28:29.046Z,6.80
2018-12-27T14:30:57.542Z,7.43
2018-12-27T14:33:25.779Z,7.10
2018-12-27T14:35:54.286Z,6.47
2018-12-27T14:38:22.855Z,6.90
2018-12-27T14:40:51.101Z,6.20
2018-12-27T14:43:19.585Z,6.80
2018-12-27T14:45:47.794Z,7.30
2018-12-27T14:48:16.021Z,6.63
2018-12-27T14:50:44.483Z,7.50
2018-12-27T14:53:12.961Z,7.23
2018-12-27T14:55:41.180Z,7.13
2018-12-27T14:58:09.417Z,7.40
2018-12-27T15:00:39.106Z,7.40
2018-12-27T15:03:07.591Z,7.80
2018-12-27T15:05:36.096Z,7.67
2018-12-27T15:08:04.543Z,6.83
2018-12-27T15:10:33.094Z,6.90
2018-12-27T15:13:01.599Z,7.00
2018-12-27T15:15:30.067Z,7.70
2018-12-27T15:17:58.620Z,7.47
2018-12-27T15:20:27.088Z,7.53
2018-12-27T15:22:55.291Z,8.03
2018-12-27T15:25:23.792Z,7.63
2018-12-27T15:27:52.314Z,7.87
2018-12-27T15:30:20.836Z,7.07
2018-12-27T15:32:49.047Z,7.60
2018-12-27T15:35:17.495Z,6.60
2018-12-27T15:37:45.987Z,6.93
2018-12-27T15:40:14.442Z,6.90
2018-12-27T15:42:43.021Z,7.73
2018-12-27T15:45:11.492Z,8.50
2018-12-27T15:47:40.046Z,7.03
2018-12-27T15:50:08.782Z,7.10
2018-12-27T15:52:37.285Z,7.23
2018-12-27T15:55:05.470Z,7.47
2018-12-27T15:57:33.995Z,7.80
2018-12-27T16:00:02.546Z,7.30
2018-12-27T16:02:30.740Z,7.93
2018-12-27T16:04:59.230Z,7.30
2018-12-27T16:07:27.438Z,7.47
2018-12-27T16:09:55.971Z,8.60
2018-12-27T16:12:24.495Z,10.40
2018-12-27T16:14:53.020Z,8.37
2018-12-27T16:17:21.515Z,8.00
2018-12-27T16:19:50.017Z,7.70
2018-12-27T16:22:18.488Z,8.27
2018-12-27T16:24:46.969Z,7.17
2018-12-27T16:27:15.467Z,8.07
2018-12-27T16:29:43.684Z,8.83
2018-12-27T16:32:12.162Z,7.40
2018-12-27T16:34:40.646Z,8.90
2018-12-27T16:37:09.383Z,14.30
2018-12-27T16:39:37.938Z,10.03
2018-12-27T16:42:06.432Z,9.17
2018-12-27T16:44:34.709Z,10.83
2018-12-27T16:47:03.224Z,8.97
2018-12-27T16:49:31.771Z,8.70
2018-12-27T16:52:00.321Z,8.37
2018-12-27T16:54:28.732Z,8.30
2018-12-27T16:56:57.297Z,8.30
2018-12-27T16:59:25.803Z,8.30
2018-12-27T17:01:54.336Z,9.00
2018-12-27T17:04:22.563Z,9.13
2018-12-27T17:06:51.068Z,10.00
2018-12-27T17:09:19.311Z,11.00
2018-12-27T17:11:47.796Z,13.27
2018-12-27T17:14:16.321Z,13.53
2018-12-27T17:16:44.506Z,16.53
2018-12-27T17:19:13.594Z,11.50
2018-12-27T17:21:41.786Z,10.60
2018-12-27T17:24:10.325Z,11.53
2018-12-27T17:26:38.775Z,10.33
2018-12-27T17:29:07.052Z,9.87
2018-12-27T17:31:35.559Z,10.70
2018-12-27T17:34:04.049Z,8.27
2018-12-27T17:36:32.565Z,8.47
2018-12-27T17:39:00.779Z,7.13
2018-12-27T17:41:29.279Z,8.60
2018-12-27T17:43:57.642Z,8.70
2018-12-27T17:46:26.300Z,8.30
2018-12-27T17:48:54.781Z,7.90
2018-12-27T17:51:23.245Z,8.50
2018-12-27T17:53:51.475Z,9.07
2018-12-27T17:56:19.944Z,9.47
2018-12-27T17:58:48.435Z,8.23
2018-12-27T18:01:16.846Z,8.40
2018-12-27T18:03:45.336Z,8.80
2018-12-27T18:06:13.570Z,8.70
2018-12-27T18:08:42.083Z,9.30
2018-12-27T18:11:10.313Z,8.80
2018-12-27T18:13:38.802Z,8.40
2018-12-27T18:16:07.117Z,7.43
2018-12-27T18:18:35.691Z,6.83
2018-12-27T18:21:04.213Z,7.60
2018-12-27T18:23:32.719Z,7.53
2018-12-27T18:26:02.821Z,7.80
2018-12-27T18:28:32.108Z,8.63
2018-12-27T18:31:00.583Z,27.80
2018-12-27T18:33:29.082Z,61.03
2018-12-27T18:35:57.376Z,79.40
2018-12-27T18:38:25.672Z,75.87
2018-12-27T18:40:54.290Z,59.07
2018-12-27T18:43:22.829Z,27.80
2018-12-27T18:45:51.311Z,20.70
2018-12-27T18:48:19.513Z,12.90
2018-12-27T18:50:47.991Z,16.40
2018-12-27T18:53:16.255Z,12.83
2018-12-27T18:55:45.069Z,9.50
2018-12-27T18:58:13.668Z,11.13
2018-12-27T19:00:42.200Z,13.57
2018-12-27T19:03:10.708Z,12.70
2018-12-27T19:05:38.909Z,12.93
2018-12-27T19:08:07.445Z,12.60
2018-12-27T19:10:35.968Z,14.07
2018-12-27T19:13:06.394Z,10.40
2018-12-27T19:15:37.882Z,9.47
2018-12-27T19:18:12.206Z,11.10
2018-12-27T19:20:43.108Z,10.30
2018-12-27T19:23:13.753Z,9.40
2018-12-27T19:25:42.216Z,9.37
2018-12-27T19:28:10.711Z,8.17
2018-12-27T19:30:39.323Z,10.37
2018-12-27T19:33:07.847Z,19.50
2018-12-27T19:35:38.004Z,13.43
2018-12-27T19:38:06.535Z,13.50
2018-12-27T19:40:34.758Z,11.33
2018-12-27T19:43:03.224Z,10.80
2018-12-27T19:45:31.742Z,13.60
2018-12-27T19:48:00.652Z,11.80
2018-12-27T19:50:29.159Z,14.30
2018-12-27T19:52:57.737Z,15.00
2018-12-27T19:55:26.778Z,15.10
2018-12-27T19:57:55.278Z,15.80
2018-12-27T20:00:23.786Z,15.60
2018-12-27T20:02:52.014Z,15.73
2018-12-27T20:05:20.302Z,13.50
2018-12-27T20:07:48.853Z,11.60
2018-12-27T20:10:17.347Z,9.73
2018-12-27T20:12:45.831Z,9.30
2018-12-27T20:15:14.098Z,9.50
2018-12-27T20:17:42.632Z,10.47
2018-12-27T20:20:13.548Z,10.77
2018-12-27T20:22:42.106Z,8.80
2018-12-27T20:25:10.321Z,10.80
2018-12-27T20:27:38.507Z,9.30
2018-12-27T20:30:08.554Z,9.73
2018-12-27T20:32:37.042Z,9.70
2018-12-27T20:35:05.890Z,9.40
2018-12-27T20:37:34.420Z,12.13
2018-12-27T20:40:03.478Z,12.13
2018-12-27T20:42:32.007Z,12.40
2018-12-27T20:45:00.614Z,11.77
2018-12-27T20:47:28.863Z,11.17
2018-12-27T20:49:57.366Z,9.97
2018-12-27T20:52:27.527Z,9.40
2018-12-27T20:54:55.737Z,10.63
2018-12-27T20:57:24.301Z,10.90
2018-12-27T20:59:52.788Z,11.13
2018-12-27T21:02:21.012Z,10.20
2018-12-27T21:04:49.504Z,10.23
2018-12-27T21:07:17.745Z,9.80
2018-12-27T21:09:46.415Z,9.87
2018-12-27T21:12:15.628Z,10.00
2018-12-27T21:14:44.706Z,10.77
2018-12-27T21:17:13.194Z,10.70
2018-12-27T21:19:41.782Z,12.73
2018-12-27T21:22:10.274Z,9.80
2018-12-27T21:24:38.798Z,9.77
2018-12-27T21:27:07.327Z,9.70
2018-12-27T21:29:35.796Z,12.40
2018-12-27T21:32:04.286Z,13.27
2018-12-27T21:34:33.011Z,14.03
2018-12-27T21:37:02.207Z,11.30
2018-12-27T21:39:30.427Z,10.43
2018-12-27T21:41:58.760Z,11.03
2018-12-27T21:44:27.276Z,11.80
2018-12-27T21:46:55.474Z,10.60
2018-12-27T21:49:24.055Z,10.00
2018-12-27T21:51:53.303Z,10.00
2018-12-27T21:54:21.559Z,10.70
2018-12-27T21:56:50.039Z,13.03
2018-12-27T21:59:18.591Z,13.97
2018-12-27T22:01:47.406Z,45.47
2018-12-27T22:04:17.545Z,47.67
2018-12-27T22:06:46.039Z,46.60
2018-12-27T22:09:14.295Z,38.10
2018-12-27T22:11:42.817Z,35.43
2018-12-27T22:14:11.079Z,24.87
2018-12-27T22:16:39.639Z,31.17
2018-12-27T22:19:08.141Z,32.13
2018-12-27T22:21:36.357Z,27.23
2018-12-27T22:24:04.863Z,26.37
2018-12-27T22:26:33.094Z,22.13
2018-12-27T22:29:01.606Z,19.90
2018-12-27T22:31:29.814Z,26.30
2018-12-27T22:33:58.129Z,35.97
2018-12-27T22:36:26.647Z,40.83
2018-12-27T22:38:55.141Z,64.10
2018-12-27T22:41:25.247Z,35.03
2018-12-27T22:43:53.714Z,20.50
2018-12-27T22:46:22.339Z,21.80
2018-12-27T22:48:50.595Z,20.10
2018-12-27T22:51:19.068Z,15.03
2018-12-27T22:53:47.571Z,14.37
2018-12-27T22:56:16.046Z,14.80
2018-12-27T22:58:44.534Z,12.30
2018-12-27T23:01:13.060Z,9.90
2018-12-27T23:03:41.581Z,11.33
2018-12-27T23:06:10.081Z,9.97
2018-12-27T23:08:43.088Z,10.37
2018-12-27T23:11:08.805Z,10.23
2018-12-27T23:13:37.066Z,10.83
2018-12-27T23:16:05.548Z,11.63
2018-12-27T23:18:34.062Z,9.90
2018-12-27T23:21:02.578Z,10.00
2018-12-27T23:23:31.534Z,10.20
2018-12-27T23:26:00.036Z,11.27
2018-12-27T23:28:28.566Z,20.07
2018-12-27T23:30:57.102Z,17.60
2018-12-27T23:33:25.656Z,12.60
2018-12-27T23:35:54.765Z,13.60
2018-12-27T23:38:23.247Z,15.10
2018-12-27T23:40:51.723Z,14.73
2018-12-27T23:43:20.228Z,14.43
2018-12-27T23:45:48.476Z,17.80
2018-12-27T23:48:16.970Z,14.60
2018-12-27T23:50:46.712Z,12.10
2018-12-27T23:53:15.238Z,14.10
2018-12-27T23:55:43.490Z,14.77
2018-12-27T23:58:11.928Z,13.50
